Time;durP1;ratioP1;P1;durP2;ratioP2;P2;SDS_P1;SDS_P2;PMS_P1;PMS_P2;Temp;Humidity;BMP_temperature;BMP_pressure;BME280_temperature;BME280_humidity;BME280_pressure;Samples;Min_cycle;Max_cycle;Signal;HPM_P1;HPM_P2
2023/07/14 00:00:33;;;;;;;3.80;1.10;;;;;;;-145.41;100.00;58600.66;4989058;28;20042;-75
2023/07/14 00:03:00;;;;;;;3.55;1.35;;;;;;;-145.41;100.00;58600.66;4987646;28;20072;-75
2023/07/14 00:05:31;;;;;;;3.42;1.02;;;;;;;-145.41;100.00;58600.66;4989904;28;20042;-75
2023/07/14 00:07:57;;;;;;;3.63;1.35;;;;;;;-145.41;100.00;58600.66;4994799;28;20035;-75
2023/07/14 00:10:31;;;;;;;3.45;1.42;;;;;;;-145.41;100.00;58600.66;4991612;28;20040;-75
2023/07/14 00:12:59;;;;;;;3.08;1.52;;;;;;;-145.41;100.00;58600.66;4990831;28;20042;-75
2023/07/14 00:15:26;;;;;;;5.35;1.35;;;;;;;-145.41;100.00;58600.66;4989956;28;20113;-75
2023/07/14 00:17:59;;;;;;;2.85;1.52;;;;;;;-145.41;100.00;58600.66;4992079;28;20038;-75
2023/07/14 00:20:27;;;;;;;3.47;1.30;;;;;;;-145.41;100.00;58600.66;4990724;28;20034;-75
2023/07/14 00:22:58;;;;;;;3.58;1.20;;;;;;;-145.41;100.00;58600.66;4990826;28;20038;-75
2023/07/14 00:25:25;;;;;;;3.20;1.57;;;;;;;-145.41;100.00;58600.66;4990323;28;20088;-75
2023/07/14 00:27:53;;;;;;;3.05;1.40;;;;;;;-145.41;100.00;58600.66;4991597;28;20281;-75
2023/07/14 00:30:22;;;;;;;3.15;1.25;;;;;;;-145.41;100.00;58600.66;4988758;28;20637;-76
2023/07/14 00:32:49;;;;;;;3.10;1.40;;;;;;;-145.41;100.00;58600.66;4983812;28;20030;-75
2023/07/14 00:35:18;;;;;;;2.72;1.35;;;;;;;-145.41;100.00;58600.66;4990710;28;20077;-75
2023/07/14 00:37:43;;;;;;;3.70;1.30;;;;;;;-145.41;100.00;58600.66;4989952;28;20125;-75
2023/07/14 00:40:14;;;;;;;2.33;1.17;;;;;;;-145.41;100.00;58600.66;4997791;28;20117;-75
2023/07/14 00:42:40;;;;;;;4.38;1.40;;;;;;;-145.41;100.00;58600.66;4990423;28;20026;-75
2023/07/14 00:45:18;;;;;;;5.53;1.73;;;;;;;-145.41;100.00;58600.66;4989785;28;20034;-75
2023/07/14 00:47:46;;;;;;;3.05;1.80;;;;;;;-145.41;100.00;58600.66;4990304;28;20473;-75
2023/07/14 00:50:24;;;;;;;4.53;1.10;;;;;;;-145.41;100.00;58600.66;4990403;28;20042;-75
2023/07/14 00:52:50;;;;;;;2.60;1.40;;;;;;;-145.41;100.00;58600.66;4986136;28;20042;-75
2023/07/14 00:55:24;;;;;;;3.47;1.50;;;;;;;-145.41;100.00;58600.66;4990461;28;20041;-75
2023/07/14 00:57:53;;;;;;;3.05;1.73;;;;;;;-145.41;100.00;58600.66;4989643;28;20030;-75
2023/07/14 01:00:29;;;;;;;3.72;1.40;;;;;;;-145.41;100.00;58600.66;4990713;28;20030;-75
2023/07/14 01:02:56;;;;;;;3.75;1.45;;;;;;;-145.41;100.00;58600.66;4970958;28;20412;-75
2023/07/14 01:05:22;;;;;;;4.80;1.70;;;;;;;-145.41;100.00;58600.66;4989139;28;20042;-74
2023/07/14 01:07:47;;;;;;;4.90;1.58;;;;;;;-145.41;100.00;58600.66;4990230;28;20041;-75
2023/07/14 01:10:16;;;;;;;5.85;1.95;;;;;;;-145.41;100.00;58600.66;4990743;28;20034;-75
2023/07/14 01:12:53;;;;;;;4.53;1.60;;;;;;;-145.41;100.00;58600.66;4987132;28;20035;-75
2023/07/14 01:15:18;;;;;;;3.92;1.95;;;;;;;-145.41;100.00;58600.66;4989033;28;20027;-75
2023/07/14 01:17:47;;;;;;;6.30;1.98;;;;;;;-145.41;100.00;58600.66;4989888;28;20510;-75
2023/07/14 01:20:12;;;;;;;3.55;1.40;;;;;;;-145.41;100.00;58600.66;4989377;28;20061;-75
2023/07/14 01:22:59;;;;;;;2.60;1.40;;;;;;;-145.41;100.00;58600.66;4988480;28;20062;-75
2023/07/14 01:25:36;;;;;;;4.47;1.30;;;;;;;-145.41;100.00;58600.66;4990054;28;20040;-75
2023/07/14 01:28:03;;;;;;;3.08;1.40;;;;;;;-145.41;100.00;58600.66;4989021;28;20110;-75
2023/07/14 01:30:29;;;;;;;4.70;2.05;;;;;;;-145.41;100.00;58600.66;4990730;28;20507;-75
2023/07/14 01:32:55;;;;;;;3.70;1.75;;;;;;;-145.41;100.00;58600.66;4989130;28;20026;-75
2023/07/14 01:35:27;;;;;;;4.85;2.70;;;;;;;-145.41;100.00;58600.66;4994855;28;20412;-75
2023/07/14 01:37:53;;;;;;;3.90;1.70;;;;;;;-145.41;100.00;58600.66;4991966;28;20160;-75
2023/07/14 01:40:18;;;;;;;3.25;1.70;;;;;;;-145.41;100.00;58600.66;4993318;28;20656;-75
2023/07/14 01:42:52;;;;;;;2.83;1.50;;;;;;;-145.41;100.00;58600.66;4993529;28;20088;-75
2023/07/14 01:45:19;;;;;;;5.30;2.30;;;;;;;-145.41;100.00;58600.66;4992120;28;20117;-75
2023/07/14 01:47:53;;;;;;;4.47;2.10;;;;;;;-145.41;100.00;58600.66;4993909;28;20030;-75
2023/07/14 01:50:33;;;;;;;6.15;2.35;;;;;;;-145.41;100.00;58600.66;4987687;28;20117;-75
2023/07/14 01:53:24;;;;;;;6.20;1.92;;;;;;;-145.41;100.00;58600.66;4993618;28;20038;-75
2023/07/14 01:55:53;;;;;;;4.13;2.58;;;;;;;-145.41;100.00;58600.66;4993362;28;20034;-75
2023/07/14 01:58:32;;;;;;;4.85;2.67;;;;;;;-145.41;100.00;58600.66;4989398;28;20078;-75
2023/07/14 02:00:58;;;;;;;4.28;2.00;;;;;;;-145.41;100.00;58600.66;4992184;28;20030;-75
2023/07/14 02:03:32;;;;;;;3.72;2.08;;;;;;;-145.41;100.00;58600.66;4993290;28;20037;-75
2023/07/14 02:05:58;;;;;;;4.03;1.70;;;;;;;-145.41;100.00;58600.66;4994623;28;20033;-75
2023/07/14 02:08:24;;;;;;;4.18;1.58;;;;;;;-145.41;100.00;58600.66;4992164;28;21265;-75
2023/07/14 02:10:50;;;;;;;2.67;1.77;;;;;;;-145.41;100.00;58600.66;4988522;28;20038;-75
2023/07/14 02:13:16;;;;;;;5.20;1.65;;;;;;;-145.41;100.00;58600.66;4992314;28;20034;-74
2023/07/14 02:15:42;;;;;;;5.93;2.35;;;;;;;-145.41;100.00;58600.66;4992179;28;20655;-75
2023/07/14 02:18:12;;;;;;;2.90;1.60;;;;;;;-145.41;100.00;58600.66;4994173;28;20037;-75
2023/07/14 02:20:41;;;;;;;2.78;1.77;;;;;;;-145.41;100.00;58600.66;4991873;28;20054;-75
2023/07/14 02:23:14;;;;;;;5.00;1.98;;;;;;;-145.41;100.00;58600.66;4987823;28;20034;-74
2023/07/14 02:25:43;;;;;;;4.65;2.38;;;;;;;-145.41;100.00;58600.66;4992765;28;20117;-74
2023/07/14 02:28:12;;;;;;;3.33;1.80;;;;;;;-145.41;100.00;58600.66;4991938;28;20058;-75
2023/07/14 02:30:39;;;;;;;3.97;1.73;;;;;;;-145.41;100.00;58600.66;4993266;28;20117;-75
2023/07/14 02:33:13;;;;;;;4.63;2.63;;;;;;;-145.41;100.00;58600.66;4993735;28;20066;-74
2023/07/14 02:36:06;;;;;;;6.03;2.28;;;;;;;-145.41;100.00;58600.66;4992306;28;20523;-75
2023/07/14 02:38:31;;;;;;;12.13;2.08;;;;;;;-145.41;100.00;58600.66;4994043;28;20508;-75
2023/07/14 02:41:09;;;;;;;4.60;2.47;;;;;;;-145.41;100.00;58600.66;4991682;28;20130;-75
2023/07/14 02:43:35;;;;;;;5.25;1.92;;;;;;;-145.41;100.00;58600.66;4992557;28;20030;-74
2023/07/14 02:46:11;;;;;;;3.95;1.85;;;;;;;-145.41;100.00;58600.66;4992448;28;20046;-75
2023/07/14 02:48:41;;;;;;;5.95;2.13;;;;;;;-145.41;100.00;58600.66;4992086;28;20022;-75
2023/07/14 02:51:07;;;;;;;4.28;2.20;;;;;;;-145.41;100.00;58600.66;4992755;28;20037;-75
2023/07/14 02:53:32;;;;;;;3.92;2.13;;;;;;;-145.41;100.00;58600.66;4993607;28;20034;-75
2023/07/14 02:55:58;;;;;;;4.60;2.10;;;;;;;-145.41;100.00;58600.66;4992329;28;20382;-75
2023/07/14 02:58:23;;;;;;;4.88;2.38;;;;;;;-145.41;100.00;58600.66;4991984;28;20429;-75
2023/07/14 03:00:49;;;;;;;4.43;2.03;;;;;;;-145.41;100.00;58600.66;4991294;28;20471;-75
2023/07/14 03:03:15;;;;;;;4.97;2.30;;;;;;;-145.41;100.00;58600.66;4991757;28;20034;-75
2023/07/14 03:05:41;;;;;;;4.13;2.50;;;;;;;-145.41;100.00;58600.66;4988485;28;20038;-75
2023/07/14 03:08:14;;;;;;;3.85;1.83;;;;;;;-145.41;100.00;58600.66;4995130;28;20049;-75
2023/07/14 03:10:44;;;;;;;4.07;1.67;;;;;;;-145.41;100.00;58600.66;4991945;28;20072;-75
2023/07/14 03:13:10;;;;;;;4.68;2.20;;;;;;;-145.41;100.00;58600.66;4992975;28;20046;-75
2023/07/14 03:15:36;;;;;;;3.65;1.80;;;;;;;-145.41;100.00;58600.66;4992092;28;20053;-75
2023/07/14 03:18:01;;;;;;;5.55;2.00;;;;;;;-145.41;100.00;58600.66;5000901;28;20034;-75
2023/07/14 03:20:27;;;;;;;4.30;2.10;;;;;;;-145.41;100.00;58600.66;4990865;28;20066;-75
2023/07/14 03:22:52;;;;;;;5.47;2.10;;;;;;;-145.41;100.00;58600.66;4991806;28;20045;-76
2023/07/14 03:25:17;;;;;;;5.13;2.92;;;;;;;-145.41;100.00;58600.66;4991524;28;20026;-75
2023/07/14 03:27:44;;;;;;;5.22;3.05;;;;;;;-145.41;100.00;58600.66;4991601;28;20046;-75
2023/07/14 03:30:10;;;;;;;5.43;3.00;;;;;;;-145.41;100.00;58600.66;4991360;28;20041;-76
2023/07/14 03:32:35;;;;;;;4.97;2.35;;;;;;;-145.41;100.00;58600.66;4991623;28;20030;-75
2023/07/14 03:35:00;;;;;;;4.10;2.80;;;;;;;-145.41;100.00;58600.66;4991432;28;20034;-75
2023/07/14 03:37:25;;;;;;;5.35;2.45;;;;;;;-145.41;100.00;58600.66;4992418;28;20540;-75
2023/07/14 03:39:51;;;;;;;4.60;2.55;;;;;;;-145.41;100.00;58600.66;4992125;28;20042;-75
2023/07/14 03:42:16;;;;;;;4.40;1.90;;;;;;;-145.41;100.00;58600.66;4992351;28;20038;-75
2023/07/14 03:44:43;;;;;;;5.57;2.30;;;;;;;-145.41;100.00;58600.66;4994302;28;20038;-75
2023/07/14 03:47:08;;;;;;;8.00;2.50;;;;;;;-145.41;100.00;58600.66;4992196;28;20036;-75
2023/07/14 03:49:34;;;;;;;6.30;2.70;;;;;;;-145.41;100.00;58600.66;4989973;28;20121;-75
2023/07/14 03:52:00;;;;;;;5.55;2.92;;;;;;;-145.41;100.00;58600.66;4990961;28;20040;-75
2023/07/14 03:54:25;;;;;;;5.50;2.80;;;;;;;-145.41;100.00;58600.66;4992253;28;20050;-75
2023/07/14 03:56:52;;;;;;;4.07;2.65;;;;;;;-145.41;100.00;58600.66;4989853;28;20030;-76
2023/07/14 03:59:17;;;;;;;4.50;2.33;;;;;;;-145.41;100.00;58600.66;4991556;28;20026;-75
2023/07/14 04:01:42;;;;;;;4.15;2.35;;;;;;;-145.41;100.00;58600.66;4991603;28;20400;-76
2023/07/14 04:04:08;;;;;;;3.97;2.20;;;;;;;-145.41;100.00;58600.66;4991715;28;20041;-76
2023/07/14 04:06:33;;;;;;;4.55;2.42;;;;;;;-145.41;100.00;58600.66;4989590;28;20095;-76
2023/07/14 04:09:00;;;;;;;3.97;2.40;;;;;;;-145.41;100.00;58600.66;4992931;28;20146;-76
2023/07/14 04:11:31;;;;;;;5.90;2.13;;;;;;;-145.41;100.00;58600.66;5006703;28;20092;-76
2023/07/14 04:13:57;;;;;;;4.45;1.77;;;;;;;-145.41;100.00;58600.66;4989837;28;20035;-76
2023/07/14 04:16:23;;;;;;;3.53;1.83;;;;;;;-145.41;100.00;58600.66;4991633;28;20038;-76
2023/07/14 04:18:49;;;;;;;4.85;2.20;;;;;;;-145.41;100.00;58600.66;4991099;28;20702;-76
2023/07/14 04:21:14;;;;;;;3.88;2.05;;;;;;;-145.41;100.00;58600.66;4991510;28;20049;-75
2023/07/14 04:23:40;;;;;;;3.90;1.90;;;;;;;-145.41;100.00;58600.66;4991561;28;20042;-76
2023/07/14 04:26:12;;;;;;;4.78;1.90;;;;;;;-145.41;100.00;58600.66;4991653;28;20038;-75
2023/07/14 04:28:37;;;;;;;4.00;2.08;;;;;;;-145.41;100.00;58600.66;4989874;28;20034;-75
2023/07/14 04:31:03;;;;;;;4.93;2.22;;;;;;;-145.41;100.00;58600.66;4997954;28;20165;-75
2023/07/14 04:33:29;;;;;;;5.25;2.33;;;;;;;-145.41;100.00;58600.66;4991195;28;20065;-75
2023/07/14 04:35:56;;;;;;;5.18;2.30;;;;;;;-145.41;100.00;58600.66;4991465;28;20400;-75
2023/07/14 04:38:23;;;;;;;4.80;2.78;;;;;;;-145.41;100.00;58600.66;4991408;28;20453;-75
2023/07/14 04:40:49;;;;;;;5.05;2.33;;;;;;;-145.41;100.00;58600.66;4990821;28;20022;-75
2023/07/14 04:43:15;;;;;;;7.28;3.22;;;;;;;-145.41;100.00;58600.66;4987991;28;20459;-75
2023/07/14 04:45:44;;;;;;;4.70;2.75;;;;;;;-145.41;100.00;58600.66;4991145;28;20543;-74
2023/07/14 04:48:13;;;;;;;5.28;2.97;;;;;;;-145.41;100.00;58600.66;4989700;28;20033;-76
2023/07/14 04:50:39;;;;;;;7.50;3.35;;;;;;;-145.41;100.00;58600.66;4990596;28;20049;-76
2023/07/14 04:53:05;;;;;;;6.65;3.35;;;;;;;-145.41;100.00;58600.66;4991287;28;20121;-76
2023/07/14 04:55:41;;;;;;;9.05;2.67;;;;;;;-145.41;100.00;58600.66;4991964;28;20050;-76
2023/07/14 04:58:08;;;;;;;5.93;3.78;;;;;;;-145.41;100.00;58600.66;4990081;28;20064;-76
2023/07/14 05:00:35;;;;;;;5.90;3.80;;;;;;;-145.41;100.00;58600.66;4988741;28;20030;-76
2023/07/14 05:03:01;;;;;;;5.65;2.80;;;;;;;-145.41;100.00;58600.66;4988535;28;20054;-76
2023/07/14 05:05:26;;;;;;;6.03;2.90;;;;;;;-145.41;100.00;58600.66;4990150;28;20428;-75
2023/07/14 05:07:52;;;;;;;5.22;2.63;;;;;;;-145.41;100.00;58600.66;4991665;28;20065;-76
2023/07/14 05:10:19;;;;;;;4.78;2.60;;;;;;;-145.41;100.00;58600.66;4993384;28;20081;-76
2023/07/14 05:12:46;;;;;;;3.95;2.05;;;;;;;-145.41;100.00;58600.66;4994322;28;20046;-76
2023/07/14 05:15:12;;;;;;;5.13;2.78;;;;;;;-145.41;100.00;58600.66;4995257;28;20031;-76
2023/07/14 05:17:38;;;;;;;6.25;2.38;;;;;;;-145.41;100.00;58600.66;4994783;28;20058;-76
2023/07/14 05:20:12;;;;;;;6.28;2.58;;;;;;;-145.41;100.00;58600.66;4994445;28;20034;-76
2023/07/14 05:22:37;;;;;;;4.63;2.55;;;;;;;-145.41;100.00;58600.66;4994776;28;20049;-76
2023/07/14 05:25:04;;;;;;;6.35;3.05;;;;;;;-145.41;100.00;58600.66;4992890;28;20452;-76
2023/07/14 05:27:30;;;;;;;6.47;2.40;;;;;;;-145.41;100.00;58600.66;4989326;28;20062;-76
2023/07/14 05:29:55;;;;;;;4.57;2.70;;;;;;;-145.41;100.00;58600.66;4992657;28;20040;-76
2023/07/14 05:32:21;;;;;;;4.40;2.38;;;;;;;-145.41;100.00;58600.66;4994555;28;20129;-76
2023/07/14 05:34:48;;;;;;;5.97;2.78;;;;;;;-145.41;100.00;58600.66;4991620;28;20034;-76
2023/07/14 05:37:14;;;;;;;4.35;2.55;;;;;;;-145.41;100.00;58600.66;4993951;28;20047;-76
2023/07/14 05:39:40;;;;;;;9.45;3.42;;;;;;;-145.41;100.00;58600.66;4991579;28;20085;-76
2023/07/14 05:42:05;;;;;;;4.38;2.13;;;;;;;-145.41;100.00;58600.66;4994481;28;20493;-76
2023/07/14 05:44:30;;;;;;;5.63;2.58;;;;;;;-145.41;100.00;58600.66;4994526;28;20512;-76
2023/07/14 05:46:56;;;;;;;7.32;2.85;;;;;;;-145.41;100.00;58600.66;4993906;28;20478;-76
2023/07/14 05:49:21;;;;;;;5.00;2.70;;;;;;;-145.41;100.00;58600.66;4993791;28;20037;-76
2023/07/14 05:51:47;;;;;;;6.85;2.53;;;;;;;-145.41;100.00;58600.66;4994510;28;20042;-76
2023/07/14 05:54:12;;;;;;;7.57;3.03;;;;;;;-145.41;100.00;58600.66;4993804;28;20173;-76
2023/07/14 05:56:38;;;;;;;6.35;2.65;;;;;;;-145.41;100.00;58600.66;4994403;28;20038;-76
2023/07/14 05:59:03;;;;;;;7.55;2.88;;;;;;;-145.41;100.00;58600.66;4993680;28;20045;-77
2023/07/14 06:01:28;;;;;;;5.30;2.83;;;;;;;-145.41;100.00;58600.66;4993933;28;20042;-76
2023/07/14 06:03:54;;;;;;;4.65;2.53;;;;;;;-145.41;100.00;58600.66;4994434;28;20061;-76
2023/07/14 06:06:19;;;;;;;6.53;2.50;;;;;;;-145.41;100.00;58600.66;4994358;28;20064;-76
2023/07/14 06:08:45;;;;;;;4.82;2.25;;;;;;;-145.41;100.00;58600.66;4992694;28;20065;-77
2023/07/14 06:11:11;;;;;;;5.18;2.17;;;;;;;-145.41;100.00;58600.66;4993730;28;20026;-77
2023/07/14 06:13:36;;;;;;;3.88;2.05;;;;;;;-145.41;100.00;58600.66;4994023;28;20099;-76
2023/07/14 06:16:01;;;;;;;6.60;2.28;;;;;;;-145.41;100.00;58600.66;4993458;28;20030;-76
2023/07/14 06:18:27;;;;;;;5.80;2.70;;;;;;;-145.41;100.00;58600.66;4992907;28;20048;-76
2023/07/14 06:20:52;;;;;;;7.25;2.80;;;;;;;-145.41;100.00;58600.66;4993190;28;20405;-76
2023/07/14 06:23:17;;;;;;;5.47;2.42;;;;;;;-145.41;100.00;58600.66;4994057;28;20589;-77
2023/07/14 06:25:43;;;;;;;5.47;1.95;;;;;;;-145.41;100.00;58600.66;4989570;28;20414;-76
2023/07/14 06:28:09;;;;;;;5.85;2.22;;;;;;;-145.41;100.00;58600.66;4992257;28;20087;-76
2023/07/14 06:30:35;;;;;;;4.32;1.63;;;;;;;-145.41;100.00;58600.66;4992559;28;20034;-77
2023/07/14 06:33:01;;;;;;;3.42;1.92;;;;;;;-145.41;100.00;58600.66;4992228;28;20038;-76
2023/07/14 06:35:26;;;;;;;6.32;2.75;;;;;;;-145.41;100.00;58600.66;4992431;28;20529;-77
2023/07/14 06:37:51;;;;;;;4.95;1.90;;;;;;;-145.41;100.00;58600.66;4993445;28;20041;-77
2023/07/14 06:40:17;;;;;;;4.97;2.70;;;;;;;-145.41;100.00;58600.66;4992843;28;20177;-76
2023/07/14 06:42:42;;;;;;;7.70;2.13;;;;;;;-145.41;100.00;58600.66;4993601;28;20034;-76
2023/07/14 06:45:08;;;;;;;4.88;2.10;;;;;;;-145.41;100.00;58600.66;4993485;28;20042;-77
2023/07/14 06:47:34;;;;;;;5.95;2.33;;;;;;;-145.41;100.00;58600.66;4993206;28;20045;-76
2023/07/14 06:50:00;;;;;;;6.03;2.72;;;;;;;-145.41;100.00;58600.66;4992754;28;20033;-76
2023/07/14 06:52:25;;;;;;;5.88;2.33;;;;;;;-145.41;100.00;58600.66;4993307;28;20181;-77
2023/07/14 06:54:52;;;;;;;9.45;2.70;;;;;;;-145.41;100.00;58600.66;4993295;28;20109;-76
2023/07/14 06:57:18;;;;;;;4.93;2.40;;;;;;;-145.41;100.00;58600.66;4993163;28;20030;-77
2023/07/14 06:59:43;;;;;;;4.97;1.80;;;;;;;-145.41;100.00;58600.66;4991258;28;20615;-76
2023/07/14 07:02:12;;;;;;;5.50;1.55;;;;;;;-145.41;100.00;58600.66;4991807;28;20040;-76
2023/07/14 07:04:37;;;;;;;2.85;1.30;;;;;;;-145.41;100.00;58600.66;4992445;28;20463;-76
2023/07/14 07:07:04;;;;;;;4.75;1.67;;;;;;;-145.41;100.00;58600.66;4993465;28;20113;-76
2023/07/14 07:09:29;;;;;;;9.55;1.88;;;;;;;-145.41;100.00;58600.66;4992249;28;20401;-76
2023/07/14 07:11:55;;;;;;;4.10;1.70;;;;;;;-145.41;100.00;58600.66;4993015;28;20038;-77
2023/07/14 07:14:21;;;;;;;4.75;1.83;;;;;;;-145.41;100.00;58600.66;4992951;28;20412;-76
2023/07/14 07:16:46;;;;;;;9.02;3.50;;;;;;;-145.41;100.00;58600.66;4992690;28;20050;-77
2023/07/14 07:19:11;;;;;;;5.80;2.55;;;;;;;-145.41;100.00;58600.66;4992167;28;20043;-76
2023/07/14 07:21:37;;;;;;;3.53;2.05;;;;;;;-145.41;100.00;58600.66;4992893;28;20034;-77
2023/07/14 07:24:06;;;;;;;4.28;2.05;;;;;;;-145.41;100.00;58600.66;4991933;28;20044;-77
2023/07/14 07:26:32;;;;;;;4.40;1.83;;;;;;;-145.41;100.00;58600.66;4992605;28;20040;-77
2023/07/14 07:28:57;;;;;;;6.25;2.22;;;;;;;-145.41;100.00;58600.66;4991183;28;20034;-77
2023/07/14 07:31:22;;;;;;;4.35;1.90;;;;;;;-145.41;100.00;58600.66;4991892;28;20034;-76
2023/07/14 07:33:48;;;;;;;4.38;2.28;;;;;;;-145.41;100.00;58600.66;4992419;28;20038;-77
2023/07/14 07:36:15;;;;;;;7.10;2.85;;;;;;;-145.41;100.00;58600.66;4992470;28;20042;-77
2023/07/14 07:38:49;;;;;;;3.58;1.80;;;;;;;-145.41;100.00;58600.66;4993253;28;20117;-78
2023/07/14 07:41:18;;;;;;;3.83;1.40;;;;;;;-145.41;100.00;58600.66;4992418;28;20106;-77
2023/07/14 07:43:44;;;;;;;2.55;1.20;;;;;;;-145.41;100.00;58600.66;4991382;28;20062;-77
2023/07/14 07:46:10;;;;;;;2.92;1.10;;;;;;;-145.41;100.00;58600.66;4992121;28;20068;-76
2023/07/14 07:48:36;;;;;;;3.72;1.30;;;;;;;-145.41;100.00;58600.66;4987565;28;20061;-77
2023/07/14 07:51:04;;;;;;;5.20;1.73;;;;;;;-145.41;100.00;58600.66;4991161;28;20038;-76
2023/07/14 07:53:30;;;;;;;4.55;1.50;;;;;;;-145.41;100.00;58600.66;4992247;28;20513;-77
2023/07/14 07:55:58;;;;;;;4.28;1.70;;;;;;;-145.41;100.00;58600.66;4992278;28;20038;-77
2023/07/14 07:58:26;;;;;;;4.95;2.10;;;;;;;-145.41;100.00;58600.66;4992047;28;20125;-76
2023/07/14 08:01:01;;;;;;;3.60;1.60;;;;;;;-145.41;100.00;58600.66;4991391;28;20113;-77
2023/07/14 08:03:27;;;;;;;4.85;2.30;;;;;;;-145.41;100.00;58600.66;4991730;28;20109;-77
2023/07/14 08:05:58;;;;;;;4.85;1.35;;;;;;;-145.41;100.00;58600.66;4991910;28;20034;-76
2023/07/14 08:08:23;;;;;;;3.58;1.30;;;;;;;-145.41;100.00;58600.66;4991988;28;20379;-76
2023/07/14 08:10:48;;;;;;;3.40;1.50;;;;;;;-145.41;100.00;58600.66;4989217;28;20089;-76
2023/07/14 08:13:14;;;;;;;4.10;1.98;;;;;;;-145.41;100.00;58600.66;4988784;28;20038;-77
2023/07/14 08:15:40;;;;;;;3.38;1.45;;;;;;;-145.41;100.00;58600.66;4991844;28;20038;-77
2023/07/14 08:18:07;;;;;;;5.40;2.10;;;;;;;-145.41;100.00;58600.66;4989374;28;20065;-77
2023/07/14 08:20:33;;;;;;;3.40;1.50;;;;;;;-145.41;100.00;58600.66;4991050;28;20448;-77
2023/07/14 08:23:06;;;;;;;3.05;1.38;;;;;;;-145.41;100.00;58600.66;4991798;28;20504;-77
2023/07/14 08:25:31;;;;;;;6.15;2.85;;;;;;;-145.41;100.00;58600.66;4990480;28;20047;-77
2023/07/14 08:27:57;;;;;;;5.25;1.35;;;;;;;-145.41;100.00;58600.66;4990683;28;20060;-77
2023/07/14 08:30:22;;;;;;;5.43;1.50;;;;;;;-145.41;100.00;58600.66;4991043;28;20026;-77
2023/07/14 08:32:49;;;;;;;2.60;1.02;;;;;;;-145.41;100.00;58600.66;4988910;28;20497;-77
2023/07/14 08:35:15;;;;;;;2.22;1.10;;;;;;;-145.41;100.00;58600.66;4991210;28;20057;-77
2023/07/14 08:37:41;;;;;;;3.00;1.50;;;;;;;-145.41;100.00;58600.66;4988848;28;20049;-77
2023/07/14 08:40:12;;;;;;;2.95;1.60;;;;;;;-145.41;100.00;58600.66;4991003;28;20062;-77
2023/07/14 08:42:50;;;;;;;;;;;;;;;-145.41;100.00;58600.66;4989762;28;20088;-77
2023/07/14 08:45:24;;;;;;;4.85;1.83;;;;;;;-145.41;100.00;58600.66;4988827;28;19918;-77
2023/07/14 08:48:13;;;;;;;4.00;1.50;;;;;;;-145.41;100.00;58600.66;4990779;28;20027;-77
2023/07/14 08:50:40;;;;;;;5.80;1.88;;;;;;;-145.41;100.00;58600.66;4990659;28;20042;-76
2023/07/14 08:53:12;;;;;;;3.20;1.60;;;;;;;-145.41;100.00;58600.66;4991092;28;20096;-77
2023/07/14 08:55:39;;;;;;;5.18;1.25;;;;;;;-145.41;100.00;58600.66;4989264;28;20052;-77
2023/07/14 08:58:21;;;;;;;5.53;1.95;;;;;;;-145.41;100.00;58600.66;4991099;28;20042;-77
2023/07/14 09:00:49;;;;;;;4.50;2.00;;;;;;;-145.41;100.00;58600.66;4988983;28;20041;-77
2023/07/14 09:03:41;;;;;;;3.53;1.20;;;;;;;-145.41;100.00;58600.66;4991070;28;20026;-76
2023/07/14 09:06:24;;;;;;;4.57;1.50;;;;;;;-145.41;100.00;58600.66;4991124;28;20034;-77
2023/07/14 09:08:51;;;;;;;7.32;1.70;;;;;;;-145.41;100.00;58600.66;4991663;28;20037;-78
2023/07/14 09:11:41;;;;;;;3.80;2.00;;;;;;;-145.41;100.00;58600.66;4990832;28;20409;-77
2023/07/14 09:14:22;;;;;;;4.28;1.60;;;;;;;-145.41;100.00;58600.66;4990865;28;20489;-77
2023/07/14 09:17:05;;;;;;;3.45;1.60;;;;;;;-145.41;100.00;58600.66;4990313;28;20042;-77
2023/07/14 09:19:57;;;;;;;3.22;1.73;;;;;;;-145.41;100.00;58600.66;4990673;28;20536;-77
2023/07/14 09:22:47;;;;;;;4.30;1.80;;;;;;;-145.41;100.00;58600.66;4988567;28;20041;-77
2023/07/14 09:25:23;;;;;;;2.25;1.20;;;;;;;-145.41;100.00;58600.66;4989115;28;20030;-77
2023/07/14 09:27:50;;;;;;;3.28;1.30;;;;;;;-145.41;100.00;58600.66;4989897;28;20038;-77
2023/07/14 09:30:19;;;;;;;3.22;1.30;;;;;;;-145.41;100.00;58600.66;4990285;28;20027;-77
2023/07/14 09:32:49;;;;;;;3.90;1.45;;;;;;;-145.41;100.00;58600.66;4989312;28;20105;-77
2023/07/14 09:35:21;;;;;;;3.50;1.60;;;;;;;-145.41;100.00;58600.66;4990052;28;20100;-77
2023/07/14 09:37:53;;;;;;;4.25;1.73;;;;;;;-145.41;100.00;58600.66;4991431;28;20393;-77
2023/07/14 09:40:25;;;;;;;4.88;1.90;;;;;;;-145.41;100.00;58600.66;4990002;28;20050;-77
2023/07/14 09:42:56;;;;;;;5.13;2.88;;;;;;;-145.41;100.00;58600.66;4989844;28;20508;-77
2023/07/14 09:45:39;;;;;;;4.75;2.42;;;;;;;-145.41;100.00;58600.66;4987064;28;20038;-77
2023/07/14 09:48:08;;;;;;;2.75;0.95;;;;;;;-145.41;100.00;58600.66;4989641;28;20540;-77
2023/07/14 09:50:38;;;;;;;2.30;1.30;;;;;;;-145.41;100.00;58600.66;4989773;28;20088;-77
2023/07/14 09:53:07;;;;;;;5.28;1.48;;;;;;;-145.41;100.00;58600.66;4986711;28;20085;-77
2023/07/14 09:55:57;;;;;;;4.07;1.63;;;;;;;-145.41;100.00;58600.66;4993058;28;20042;-77
2023/07/14 09:58:29;;;;;;;3.05;1.35;;;;;;;-145.41;100.00;58600.66;4994266;28;20767;-77
2023/07/14 10:00:59;;;;;;;6.68;2.08;;;;;;;-145.41;100.00;58600.66;4991914;28;20042;-77
2023/07/14 10:03:30;;;;;;;5.00;2.15;;;;;;;-145.41;100.00;58600.66;4991085;28;20108;-77
2023/07/14 10:06:05;;;;;;;3.80;1.83;;;;;;;-145.41;100.00;58600.66;4993052;28;20445;-77
2023/07/14 10:08:33;;;;;;;3.47;1.55;;;;;;;-145.41;100.00;58600.66;4994228;28;20183;-77
2023/07/14 10:11:19;;;;;;;2.63;1.35;;;;;;;-145.41;100.00;58600.66;4991120;28;20040;-77
2023/07/14 10:14:17;;;;;;;3.00;1.40;;;;;;;-145.41;100.00;58600.66;4992502;28;20038;-77
2023/07/14 10:16:44;;;;;;;2.65;1.38;;;;;;;-145.41;100.00;58600.66;4993665;28;20053;-76
2023/07/14 10:19:21;;;;;;;2.78;1.23;;;;;;;-145.41;100.00;58600.66;4990130;28;20512;-77
2023/07/14 10:22:04;;;;;;;3.72;1.40;;;;;;;-145.41;100.00;58600.66;5006048;28;20031;-77
2023/07/14 10:24:31;;;;;;;3.80;1.50;;;;;;;-145.41;100.00;58600.66;4992541;28;20038;-77
2023/07/14 10:27:08;;;;;;;3.67;1.40;;;;;;;-145.41;100.00;58600.66;4993399;28;20752;-77
2023/07/14 10:29:46;;;;;;;3.55;1.42;;;;;;;-145.41;100.00;58600.66;4991530;28;20588;-77
2023/07/14 10:32:26;;;;;;;3.03;1.58;;;;;;;-145.41;100.00;58600.66;4990341;28;20444;-77
2023/07/14 10:35:02;;;;;;;2.42;1.17;;;;;;;-145.41;100.00;58600.66;4991903;28;20030;-77
2023/07/14 10:37:35;;;;;;;2.03;1.15;;;;;;;-145.41;100.00;58600.66;4995356;28;20070;-77
2023/07/14 10:40:14;;;;;;;5.88;2.30;;;;;;;-145.41;100.00;58600.66;4990800;28;20038;-78
2023/07/14 10:43:16;;;;;;;3.22;1.40;;;;;;;-145.41;100.00;58600.66;4992156;28;20129;-77
2023/07/14 10:45:44;;;;;;;;;;;;;;;-145.41;100.00;58600.66;4972191;28;20534;-77
2023/07/14 10:48:24;;;;;;;3.38;1.27;;;;;;;-145.41;100.00;58600.66;4993417;28;20008;-77
2023/07/14 10:51:05;;;;;;;2.77;1.20;;;;;;;-145.41;100.00;58600.66;4990727;28;20038;-77
2023/07/14 10:53:46;;;;;;;2.80;1.08;;;;;;;-145.41;100.00;58600.66;4991628;28;20496;-78
2023/07/14 10:56:20;;;;;;;4.10;1.20;;;;;;;-145.41;100.00;58600.66;4992566;28;20082;-77
2023/07/14 10:58:55;;;;;;;2.72;1.00;;;;;;;-145.41;100.00;58600.66;4992570;28;20043;-78
2023/07/14 11:01:34;;;;;;;3.20;1.23;;;;;;;-145.41;100.00;58600.66;4993264;28;20042;-77
2023/07/14 11:04:12;;;;;;;3.20;1.20;;;;;;;-145.41;100.00;58600.66;4993565;28;20050;-78
2023/07/14 11:06:43;;;;;;;6.55;1.50;;;;;;;-145.41;100.00;58600.66;5005300;28;20466;-78
2023/07/14 11:09:11;;;;;;;2.80;1.10;;;;;;;-145.41;100.00;58600.66;4993616;28;20030;-77
2023/07/14 11:11:48;;;;;;;3.90;1.40;;;;;;;-145.41;100.00;58600.66;4990260;28;20095;-78
2023/07/14 11:14:41;;;;;;;5.10;1.35;;;;;;;-145.41;100.00;58600.66;4992732;28;20049;-77
2023/07/14 11:17:13;;;;;;;2.90;1.20;;;;;;;-145.41;100.00;58600.66;4990754;28;20078;-78
2023/07/14 11:20:00;;;;;;;4.68;1.88;;;;;;;-145.41;100.00;58600.66;4992952;28;20124;-78